Ittoqqortoormiit

KL  EN  DA
ASIAQ
Weather Now GREENLAND SURVEY
Updated [WGT/WGST] Temperature [°C] Wind [m/s] Air pressure [hPa] Relative humidity [%] Precipitation [mm]
Present Wind chill Speed Max
30.11 17:00-11,30,00,0 ⇓4,0100537n/a
30.11 16:00-9,3-14,83,1 ⇙8,2100529n/a
30.11 15:00-10,7-18,95,8 ⇐6,6100534n/a
30.11 14:00-9,7-13,61,9 ⇙5,1100530n/a
30.11 13:00-10,9-17,43,7 ⇙5,5100532n/a
30.11 12:00-11,8-17,52,9 ⇙5,4100532n/a
30.11 11:00-8,4-12,42,1 ⇑6,6100526n/a
30.11 10:00-13,2-18,22,2 ⇙4,2100634n/a
30.11 09:00-10,40,01,1 ⇘4,7100530n/a
30.11 08:00-12,5-16,61,8 ⇙5,4100535n/a
30.11 07:00-12,3-15,81,5 ⇑5,1100534n/a
30.11 06:00-11,4-16,82,7 ⇙5,2100533n/a
30.11 05:00-10,0-13,61,7 ⇐6,2100429n/a
30.11 04:00-8,0-11,31,7 ⇓4,7100425n/a
30.11 03:00-13,0-18,32,4 ⇙7,4100332n/a
30.11 02:00-13,6-21,24,2 ⇐8,9100238n/a
30.11 01:00-9,8-18,06,1 ⇘7,9100233n/a
30.11 00:00-13,30,01,0 ⇐4,1100233n/a
29.11 23:00-17,0-20,91,4 ⇙3,9100242n/a
29.11 22:00-16,00,01,0 ⇖5,4100244n/a
29.11 21:00-18,7-23,11,5 ⇙4,3100242n/a
29.11 20:00-17,2-23,62,6 ⇙5,3100140n/a
29.11 19:00-16,60,01,0 ⇙5,3100140n/a
29.11 18:00-17,2-23,72,7 ⇐5,0100144n/a
29.11 17:00-15,70,00,7 ⇐3,7100143n/a
Position: (70.48444444444,-21.95111111111)

[Back]